sensor_id;sensor_type;location;lat;lon;timestamp;temperature;humidity
5210;DHT22;2624;48.048;11.706;2024-01-10T00:04:45;-5.90;99.90
5210;DHT22;2624;48.048;11.706;2024-01-10T00:09:46;-5.60;99.90
5210;DHT22;2624;48.048;11.706;2024-01-10T00:14:50;-6.20;99.90
5210;DHT22;2624;48.048;11.706;2024-01-10T00:19:51;-6.40;99.90
5210;DHT22;2624;48.048;11.706;2024-01-10T00:24:53;-5.90;99.90
5210;DHT22;2624;48.048;11.706;2024-01-10T00:29:56;-5.80;99.90
5210;DHT22;2624;48.048;11.706;2024-01-10T00:34:58;-5.70;99.90
5210;DHT22;2624;48.048;11.706;2024-01-10T00:40:00;-5.80;99.90
5210;DHT22;2624;48.048;11.706;2024-01-10T00:45:04;-5.40;99.90
5210;DHT22;2624;48.048;11.706;2024-01-10T00:50:07;-5.40;99.90
5210;DHT22;2624;48.048;11.706;2024-01-10T00:55:09;-5.20;99.90
5210;DHT22;2624;48.048;11.706;2024-01-10T01:00:13;-5.10;99.90
5210;DHT22;2624;48.048;11.706;2024-01-10T01:05:15;-4.90;99.90
5210;DHT22;2624;48.048;11.706;2024-01-10T01:10:17;-5.60;99.90
5210;DHT22;2624;48.048;11.706;2024-01-10T01:15:20;-5.70;99.90
5210;DHT22;2624;48.048;11.706;2024-01-10T01:20:22;-5.50;99.90
5210;DHT22;2624;48.048;11.706;2024-01-10T01:25:23;-5.50;99.90
5210;DHT22;2624;48.048;11.706;2024-01-10T01:30:26;-5.30;99.90
5210;DHT22;2624;48.048;11.706;2024-01-10T01:35:28;-5.20;99.90
5210;DHT22;2624;48.048;11.706;2024-01-10T01:40:30;-5.20;99.90
5210;DHT22;2624;48.048;11.706;2024-01-10T01:45:33;-5.80;99.90
5210;DHT22;2624;48.048;11.706;2024-01-10T01:50:34;-5.80;99.90
5210;DHT22;2624;48.048;11.706;2024-01-10T01:55:36;-5.80;99.90
5210;DHT22;2624;48.048;11.706;2024-01-10T02:00:39;-5.60;99.90
5210;DHT22;2624;48.048;11.706;2024-01-10T02:05:41;-5.20;99.90
5210;DHT22;2624;48.048;11.706;2024-01-10T02:10:43;-5.40;99.90
5210;DHT22;2624;48.048;11.706;2024-01-10T02:15:46;-5.40;99.90
5210;DHT22;2624;48.048;11.706;2024-01-10T02:20:49;-6.00;99.90
5210;DHT22;2624;48.048;11.706;2024-01-10T02:25:53;-6.10;99.90
5210;DHT22;2624;48.048;11.706;2024-01-10T02:30:56;-5.90;99.90
5210;DHT22;2624;48.048;11.706;2024-01-10T02:35:58;-5.60;99.90
5210;DHT22;2624;48.048;11.706;2024-01-10T02:41:01;-5.00;99.90
5210;DHT22;2624;48.048;11.706;2024-01-10T02:46:03;-5.30;99.90
5210;DHT22;2624;48.048;11.706;2024-01-10T02:51:05;-5.00;99.90
5210;DHT22;2624;48.048;11.706;2024-01-10T02:56:09;-4.60;99.90
5210;DHT22;2624;48.048;11.706;2024-01-10T03:01:10;-4.90;99.90
5210;DHT22;2624;48.048;11.706;2024-01-10T03:06:12;-4.70;99.90
5210;DHT22;2624;48.048;11.706;2024-01-10T03:11:15;-5.70;99.90
5210;DHT22;2624;48.048;11.706;2024-01-10T03:16:17;-5.30;99.90
5210;DHT22;2624;48.048;11.706;2024-01-10T03:21:19;-4.90;99.90
5210;DHT22;2624;48.048;11.706;2024-01-10T03:26:27;-5.90;99.90
5210;DHT22;2624;48.048;11.706;2024-01-10T03:31:31;-5.30;99.90
5210;DHT22;2624;48.048;11.706;2024-01-10T03:36:32;-6.00;99.90
5210;DHT22;2624;48.048;11.706;2024-01-10T03:41:36;-5.30;99.90
5210;DHT22;2624;48.048;11.706;2024-01-10T03:46:38;-6.10;99.90
5210;DHT22;2624;48.048;11.706;2024-01-10T03:51:40;-6.20;99.90
5210;DHT22;2624;48.048;11.706;2024-01-10T03:56:43;-6.20;99.90
5210;DHT22;2624;48.048;11.706;2024-01-10T04:01:45;-6.20;99.90
5210;DHT22;2624;48.048;11.706;2024-01-10T04:06:47;-6.10;99.90
5210;DHT22;2624;48.048;11.706;2024-01-10T04:11:50;-5.70;99.90
5210;DHT22;2624;48.048;11.706;2024-01-10T04:16:53;-5.50;99.90
5210;DHT22;2624;48.048;11.706;2024-01-10T04:21:55;-5.90;99.90
5210;DHT22;2624;48.048;11.706;2024-01-10T04:26:58;-5.90;99.90
5210;DHT22;2624;48.048;11.706;2024-01-10T04:32:00;-6.30;99.90
5210;DHT22;2624;48.048;11.706;2024-01-10T04:37:02;-6.00;99.90
5210;DHT22;2624;48.048;11.706;2024-01-10T04:42:06;-5.90;99.90
5210;DHT22;2624;48.048;11.706;2024-01-10T04:47:08;-6.10;99.90
5210;DHT22;2624;48.048;11.706;2024-01-10T04:52:09;-6.00;99.90
5210;DHT22;2624;48.048;11.706;2024-01-10T04:57:12;-6.10;99.90
5210;DHT22;2624;48.048;11.706;2024-01-10T05:02:14;-6.10;99.90
5210;DHT22;2624;48.048;11.706;2024-01-10T05:07:16;-6.10;99.90
5210;DHT22;2624;48.048;11.706;2024-01-10T05:12:19;-6.40;99.90
5210;DHT22;2624;48.048;11.706;2024-01-10T05:17:21;-5.60;99.90
5210;DHT22;2624;48.048;11.706;2024-01-10T05:22:22;-5.40;99.90
5210;DHT22;2624;48.048;11.706;2024-01-10T05:27:26;-6.00;99.90
5210;DHT22;2624;48.048;11.706;2024-01-10T05:32:28;-6.30;99.90
5210;DHT22;2624;48.048;11.706;2024-01-10T05:37:29;-6.00;99.90
5210;DHT22;2624;48.048;11.706;2024-01-10T05:42:33;-5.90;99.90
5210;DHT22;2624;48.048;11.706;2024-01-10T05:47:35;-6.10;99.90
5210;DHT22;2624;48.048;11.706;2024-01-10T05:52:36;-6.60;99.90
5210;DHT22;2624;48.048;11.706;2024-01-10T05:57:40;-6.70;99.90
5210;DHT22;2624;48.048;11.706;2024-01-10T06:02:42;-6.90;99.90
5210;DHT22;2624;48.048;11.706;2024-01-10T06:07:44;-6.80;99.90
5210;DHT22;2624;48.048;11.706;2024-01-10T06:12:47;-6.70;99.90
5210;DHT22;2624;48.048;11.706;2024-01-10T06:17:49;-5.70;99.90
5210;DHT22;2624;48.048;11.706;2024-01-10T06:22:51;-5.20;99.90
5210;DHT22;2624;48.048;11.706;2024-01-10T06:27:54;-5.30;99.90
5210;DHT22;2624;48.048;11.706;2024-01-10T06:32:56;-5.30;99.90
5210;DHT22;2624;48.048;11.706;2024-01-10T06:37:57;-5.30;99.90
5210;DHT22;2624;48.048;11.706;2024-01-10T06:43:00;-5.00;99.90
5210;DHT22;2624;48.048;11.706;2024-01-10T06:48:03;-5.30;99.90
5210;DHT22;2624;48.048;11.706;2024-01-10T06:53:04;-5.40;99.90
5210;DHT22;2624;48.048;11.706;2024-01-10T06:58:07;-5.30;99.90
5210;DHT22;2624;48.048;11.706;2024-01-10T07:03:09;-6.30;99.90
5210;DHT22;2624;48.048;11.706;2024-01-10T07:08:11;-6.40;99.90
5210;DHT22;2624;48.048;11.706;2024-01-10T07:13:14;-6.00;99.90
5210;DHT22;2624;48.048;11.706;2024-01-10T07:18:16;-5.80;99.90
5210;DHT22;2624;48.048;11.706;2024-01-10T07:23:18;-5.30;99.90
5210;DHT22;2624;48.048;11.706;2024-01-10T07:28:21;-5.20;99.90
5210;DHT22;2624;48.048;11.706;2024-01-10T07:33:22;-5.10;99.90
5210;DHT22;2624;48.048;11.706;2024-01-10T07:38:24;-4.90;99.90
5210;DHT22;2624;48.048;11.706;2024-01-10T07:43:27;-4.90;99.90
5210;DHT22;2624;48.048;11.706;2024-01-10T07:48:29;-4.90;99.90
5210;DHT22;2624;48.048;11.706;2024-01-10T07:53:31;-4.90;99.90
5210;DHT22;2624;48.048;11.706;2024-01-10T07:58:34;-5.10;99.90
5210;DHT22;2624;48.048;11.706;2024-01-10T08:03:36;-4.90;99.90
5210;DHT22;2624;48.048;11.706;2024-01-10T08:08:38;-4.80;99.90
5210;DHT22;2624;48.048;11.706;2024-01-10T08:13:41;-4.80;99.90
5210;DHT22;2624;48.048;11.706;2024-01-10T08:18:43;-4.90;99.90
5210;DHT22;2624;48.048;11.706;2024-01-10T08:23:46;-4.70;99.90
5210;DHT22;2624;48.048;11.706;2024-01-10T08:28:49;-4.70;99.90
5210;DHT22;2624;48.048;11.706;2024-01-10T08:33:50;-4.90;99.90
5210;DHT22;2624;48.048;11.706;2024-01-10T08:38:52;-5.40;99.90
5210;DHT22;2624;48.048;11.706;2024-01-10T08:43:55;-5.70;99.90
5210;DHT22;2624;48.048;11.706;2024-01-10T08:48:57;-5.10;99.90
5210;DHT22;2624;48.048;11.706;2024-01-10T08:53:59;-5.60;99.90
5210;DHT22;2624;48.048;11.706;2024-01-10T08:59:03;-5.90;99.90
5210;DHT22;2624;48.048;11.706;2024-01-10T09:04:04;-5.90;99.90
5210;DHT22;2624;48.048;11.706;2024-01-10T09:09:06;-5.70;99.90
5210;DHT22;2624;48.048;11.706;2024-01-10T09:14:09;-5.80;99.90
5210;DHT22;2624;48.048;11.706;2024-01-10T09:19:11;-5.40;99.90
5210;DHT22;2624;48.048;11.706;2024-01-10T09:24:13;-5.30;99.90
5210;DHT22;2624;48.048;11.706;2024-01-10T09:29:16;-5.90;99.90
5210;DHT22;2624;48.048;11.706;2024-01-10T09:34:18;-5.90;99.90
5210;DHT22;2624;48.048;11.706;2024-01-10T09:39:20;-6.20;99.90
5210;DHT22;2624;48.048;11.706;2024-01-10T09:44:23;-6.40;99.90
5210;DHT22;2624;48.048;11.706;2024-01-10T09:49:25;-6.50;99.90
5210;DHT22;2624;48.048;11.706;2024-01-10T09:54:29;-6.50;99.90
5210;DHT22;2624;48.048;11.706;2024-01-10T09:59:32;-6.30;99.90
5210;DHT22;2624;48.048;11.706;2024-01-10T10:04:34;-6.30;99.90
5210;DHT22;2624;48.048;11.706;2024-01-10T10:09:37;-6.30;99.90
5210;DHT22;2624;48.048;11.706;2024-01-10T10:14:40;-6.20;99.90
5210;DHT22;2624;48.048;11.706;2024-01-10T10:19:42;-6.10;99.90
5210;DHT22;2624;48.048;11.706;2024-01-10T10:24:48;-6.10;99.90
5210;DHT22;2624;48.048;11.706;2024-01-10T10:29:51;-6.20;99.90
5210;DHT22;2624;48.048;11.706;2024-01-10T10:34:56;-6.10;99.90
5210;DHT22;2624;48.048;11.706;2024-01-10T10:39:57;-5.80;99.90
5210;DHT22;2624;48.048;11.706;2024-01-10T10:45:03;-5.90;99.90
5210;DHT22;2624;48.048;11.706;2024-01-10T10:50:06;-5.40;99.90
5210;DHT22;2624;48.048;11.706;2024-01-10T10:55:11;-5.40;99.90
5210;DHT22;2624;48.048;11.706;2024-01-10T11:00:18;-5.50;99.90
5210;DHT22;2624;48.048;11.706;2024-01-10T11:05:20;-5.50;99.90
5210;DHT22;2624;48.048;11.706;2024-01-10T11:10:27;-5.10;99.90
5210;DHT22;2624;48.048;11.706;2024-01-10T11:15:47;-4.90;99.90
5210;DHT22;2624;48.048;11.706;2024-01-10T11:21:06;-4.90;99.90
5210;DHT22;2624;48.048;11.706;2024-01-10T11:26:12;-4.80;99.90
5210;DHT22;2624;48.048;11.706;2024-01-10T11:31:15;-4.90;99.90
5210;DHT22;2624;48.048;11.706;2024-01-10T11:36:18;-5.10;99.90
5210;DHT22;2624;48.048;11.706;2024-01-10T11:41:22;-4.60;99.90
5210;DHT22;2624;48.048;11.706;2024-01-10T11:46:26;-4.50;99.90
5210;DHT22;2624;48.048;11.706;2024-01-10T11:51:29;-4.30;99.90
5210;DHT22;2624;48.048;11.706;2024-01-10T11:56:38;-4.20;99.90
5210;DHT22;2624;48.048;11.706;2024-01-10T12:01:42;-3.90;99.90
5210;DHT22;2624;48.048;11.706;2024-01-10T12:06:45;-3.80;99.90
5210;DHT22;2624;48.048;11.706;2024-01-10T12:11:47;-3.60;99.90
5210;DHT22;2624;48.048;11.706;2024-01-10T12:16:50;-3.90;99.90
5210;DHT22;2624;48.048;11.706;2024-01-10T12:21:52;-4.00;99.90
5210;DHT22;2624;48.048;11.706;2024-01-10T12:26:55;-3.70;99.90
5210;DHT22;2624;48.048;11.706;2024-01-10T12:31:59;-3.90;99.90
5210;DHT22;2624;48.048;11.706;2024-01-10T12:37:01;-3.70;99.90
5210;DHT22;2624;48.048;11.706;2024-01-10T12:42:03;-3.80;99.90
5210;DHT22;2624;48.048;11.706;2024-01-10T12:47:06;-3.80;99.90
5210;DHT22;2624;48.048;11.706;2024-01-10T12:52:08;-3.60;99.90
5210;DHT22;2624;48.048;11.706;2024-01-10T12:57:10;-3.70;99.90
5210;DHT22;2624;48.048;11.706;2024-01-10T13:02:13;-4.10;99.90
5210;DHT22;2624;48.048;11.706;2024-01-10T13:07:15;-4.00;99.90
5210;DHT22;2624;48.048;11.706;2024-01-10T13:12:17;-3.70;99.90
5210;DHT22;2624;48.048;11.706;2024-01-10T13:17:20;-3.30;99.90
5210;DHT22;2624;48.048;11.706;2024-01-10T13:22:22;-3.60;99.90
5210;DHT22;2624;48.048;11.706;2024-01-10T13:27:23;-3.40;99.90
5210;DHT22;2624;48.048;11.706;2024-01-10T13:32:26;-3.60;99.90
5210;DHT22;2624;48.048;11.706;2024-01-10T13:37:28;-4.20;99.90
5210;DHT22;2624;48.048;11.706;2024-01-10T13:42:32;-4.50;99.90
5210;DHT22;2624;48.048;11.706;2024-01-10T13:47:35;-4.20;99.90
5210;DHT22;2624;48.048;11.706;2024-01-10T13:52:36;-3.70;99.90
5210;DHT22;2624;48.048;11.706;2024-01-10T13:57:38;-3.60;99.90
5210;DHT22;2624;48.048;11.706;2024-01-10T14:02:41;-3.30;99.90
5210;DHT22;2624;48.048;11.706;2024-01-10T14:07:43;-3.40;99.90
5210;DHT22;2624;48.048;11.706;2024-01-10T14:12:47;-3.20;99.90
5210;DHT22;2624;48.048;11.706;2024-01-10T14:17:50;-3.30;99.90
5210;DHT22;2624;48.048;11.706;2024-01-10T14:22:52;-3.30;99.90
5210;DHT22;2624;48.048;11.706;2024-01-10T14:27:53;-3.30;99.90
5210;DHT22;2624;48.048;11.706;2024-01-10T14:32:56;-3.40;99.90
5210;DHT22;2624;48.048;11.706;2024-01-10T14:37:59;-3.70;99.90
5210;DHT22;2624;48.048;11.706;2024-01-10T14:43:01;-3.80;99.90
5210;DHT22;2624;48.048;11.706;2024-01-10T14:48:05;-3.80;99.90
5210;DHT22;2624;48.048;11.706;2024-01-10T14:53:07;-3.90;99.90
5210;DHT22;2624;48.048;11.706;2024-01-10T14:58:09;-3.90;99.90
5210;DHT22;2624;48.048;11.706;2024-01-10T15:03:12;-3.70;99.90
5210;DHT22;2624;48.048;11.706;2024-01-10T15:08:15;-4.10;99.90
5210;DHT22;2624;48.048;11.706;2024-01-10T15:13:17;-4.00;99.90
5210;DHT22;2624;48.048;11.706;2024-01-10T15:18:21;-4.10;99.90
5210;DHT22;2624;48.048;11.706;2024-01-10T15:23:22;-4.50;99.90
5210;DHT22;2624;48.048;11.706;2024-01-10T15:28:25;-4.30;99.90
5210;DHT22;2624;48.048;11.706;2024-01-10T15:33:28;-3.80;99.90
5210;DHT22;2624;48.048;11.706;2024-01-10T15:38:30;-3.50;99.90
5210;DHT22;2624;48.048;11.706;2024-01-10T15:43:31;-3.30;99.90
5210;DHT22;2624;48.048;11.706;2024-01-10T15:48:35;-3.70;99.90
5210;DHT22;2624;48.048;11.706;2024-01-10T15:53:36;-3.90;99.90
5210;DHT22;2624;48.048;11.706;2024-01-10T15:58:38;-4.10;99.90
5210;DHT22;2624;48.048;11.706;2024-01-10T16:03:42;-4.20;99.90
5210;DHT22;2624;48.048;11.706;2024-01-10T16:08:43;-4.40;99.90
5210;DHT22;2624;48.048;11.706;2024-01-10T16:13:45;-4.30;99.90
5210;DHT22;2624;48.048;11.706;2024-01-10T16:18:48;-4.50;99.90
5210;DHT22;2624;48.048;11.706;2024-01-10T16:23:50;-4.70;99.90
5210;DHT22;2624;48.048;11.706;2024-01-10T16:28:52;-4.50;99.90
5210;DHT22;2624;48.048;11.706;2024-01-10T16:33:55;-4.50;99.90
5210;DHT22;2624;48.048;11.706;2024-01-10T16:38:57;-4.30;99.90
5210;DHT22;2624;48.048;11.706;2024-01-10T16:43:59;-4.60;99.90
5210;DHT22;2624;48.048;11.706;2024-01-10T16:49:02;-4.70;99.90
5210;DHT22;2624;48.048;11.706;2024-01-10T16:54:04;-4.60;99.90
5210;DHT22;2624;48.048;11.706;2024-01-10T16:59:06;-4.40;99.90
5210;DHT22;2624;48.048;11.706;2024-01-10T17:04:09;-4.80;99.90
5210;DHT22;2624;48.048;11.706;2024-01-10T17:09:11;-4.70;99.90
5210;DHT22;2624;48.048;11.706;2024-01-10T17:14:13;-4.70;99.90
5210;DHT22;2624;48.048;11.706;2024-01-10T17:19:18;-4.60;99.90
5210;DHT22;2624;48.048;11.706;2024-01-10T17:24:19;-4.70;99.90
5210;DHT22;2624;48.048;11.706;2024-01-10T17:29:21;-4.50;99.90
5210;DHT22;2624;48.048;11.706;2024-01-10T17:34:25;-4.60;99.90
5210;DHT22;2624;48.048;11.706;2024-01-10T17:39:27;-4.60;99.90
5210;DHT22;2624;48.048;11.706;2024-01-10T17:44:29;-4.20;99.90
5210;DHT22;2624;48.048;11.706;2024-01-10T17:49:32;-4.20;99.90
5210;DHT22;2624;48.048;11.706;2024-01-10T17:54:34;-4.50;99.90
5210;DHT22;2624;48.048;11.706;2024-01-10T17:59:35;-4.30;99.90
5210;DHT22;2624;48.048;11.706;2024-01-10T18:04:38;-4.00;99.90
5210;DHT22;2624;48.048;11.706;2024-01-10T18:09:41;-4.60;99.90
5210;DHT22;2624;48.048;11.706;2024-01-10T18:14:43;-4.60;99.90
5210;DHT22;2624;48.048;11.706;2024-01-10T18:19:47;-4.50;99.90
5210;DHT22;2624;48.048;11.706;2024-01-10T18:24:49;-4.60;99.90
5210;DHT22;2624;48.048;11.706;2024-01-10T18:29:50;-4.50;99.90
5210;DHT22;2624;48.048;11.706;2024-01-10T18:34:53;-4.20;99.90
5210;DHT22;2624;48.048;11.706;2024-01-10T18:39:55;-4.00;99.90
5210;DHT22;2624;48.048;11.706;2024-01-10T18:44:57;-4.00;99.90
5210;DHT22;2624;48.048;11.706;2024-01-10T18:50:00;-4.00;99.90
5210;DHT22;2624;48.048;11.706;2024-01-10T18:55:03;-4.10;99.90
5210;DHT22;2624;48.048;11.706;2024-01-10T19:00:07;-4.70;99.90
5210;DHT22;2624;48.048;11.706;2024-01-10T19:05:12;-4.90;99.90
5210;DHT22;2624;48.048;11.706;2024-01-10T19:10:16;-4.40;99.90
5210;DHT22;2624;48.048;11.706;2024-01-10T19:15:18;-4.30;99.90
5210;DHT22;2624;48.048;11.706;2024-01-10T19:20:21;-4.80;99.90
5210;DHT22;2624;48.048;11.706;2024-01-10T19:25:23;-4.60;99.90
5210;DHT22;2624;48.048;11.706;2024-01-10T19:30:24;-4.00;99.90
5210;DHT22;2624;48.048;11.706;2024-01-10T19:35:28;-4.20;99.90
5210;DHT22;2624;48.048;11.706;2024-01-10T19:40:31;-4.60;99.90
5210;DHT22;2624;48.048;11.706;2024-01-10T19:45:34;-4.10;99.90
5210;DHT22;2624;48.048;11.706;2024-01-10T19:50:38;-4.10;99.90
5210;DHT22;2624;48.048;11.706;2024-01-10T19:55:40;-4.20;99.90
5210;DHT22;2624;48.048;11.706;2024-01-10T20:00:41;-4.40;99.90
5210;DHT22;2624;48.048;11.706;2024-01-10T20:05:45;-4.00;99.90
5210;DHT22;2624;48.048;11.706;2024-01-10T20:10:47;-4.40;99.90
5210;DHT22;2624;48.048;11.706;2024-01-10T20:15:49;-3.90;99.90
5210;DHT22;2624;48.048;11.706;2024-01-10T20:20:53;-3.70;99.90
5210;DHT22;2624;48.048;11.706;2024-01-10T20:25:55;-4.20;99.90
5210;DHT22;2624;48.048;11.706;2024-01-10T20:30:57;-4.30;99.90
5210;DHT22;2624;48.048;11.706;2024-01-10T20:36:00;-4.70;99.90
5210;DHT22;2624;48.048;11.706;2024-01-10T20:41:02;-5.00;99.90
5210;DHT22;2624;48.048;11.706;2024-01-10T20:46:04;-4.80;99.90
5210;DHT22;2624;48.048;11.706;2024-01-10T20:51:07;-5.10;99.90
5210;DHT22;2624;48.048;11.706;2024-01-10T20:56:09;-4.90;99.90
5210;DHT22;2624;48.048;11.706;2024-01-10T21:01:11;-5.10;99.90
5210;DHT22;2624;48.048;11.706;2024-01-10T21:06:14;-5.20;99.90
5210;DHT22;2624;48.048;11.706;2024-01-10T21:11:16;-5.30;99.90
5210;DHT22;2624;48.048;11.706;2024-01-10T21:16:17;-4.90;99.90
5210;DHT22;2624;48.048;11.706;2024-01-10T21:21:21;-4.90;99.90
5210;DHT22;2624;48.048;11.706;2024-01-10T21:26:22;-5.30;99.90
5210;DHT22;2624;48.048;11.706;2024-01-10T21:31:24;-5.30;99.90
5210;DHT22;2624;48.048;11.706;2024-01-10T21:36:27;-5.20;99.90
5210;DHT22;2624;48.048;11.706;2024-01-10T21:41:29;-5.10;99.90
5210;DHT22;2624;48.048;11.706;2024-01-10T21:46:31;-4.90;99.90
5210;DHT22;2624;48.048;11.706;2024-01-10T21:51:34;-4.80;99.90
5210;DHT22;2624;48.048;11.706;2024-01-10T21:56:36;-5.00;99.90
5210;DHT22;2624;48.048;11.706;2024-01-10T22:01:38;-5.20;99.90
5210;DHT22;2624;48.048;11.706;2024-01-10T22:06:42;-4.60;99.90
5210;DHT22;2624;48.048;11.706;2024-01-10T22:11:44;-4.40;99.90
5210;DHT22;2624;48.048;11.706;2024-01-10T22:16:45;-4.50;99.90
5210;DHT22;2624;48.048;11.706;2024-01-10T22:21:48;-5.20;99.90
5210;DHT22;2624;48.048;11.706;2024-01-10T22:26:50;-5.20;99.90
5210;DHT22;2624;48.048;11.706;2024-01-10T22:31:52;-5.10;99.90
5210;DHT22;2624;48.048;11.706;2024-01-10T22:36:55;-4.90;99.90
5210;DHT22;2624;48.048;11.706;2024-01-10T22:41:57;-4.80;99.90
5210;DHT22;2624;48.048;11.706;2024-01-10T22:52:02;-5.00;99.90
5210;DHT22;2624;48.048;11.706;2024-01-10T22:57:04;-4.80;99.90
5210;DHT22;2624;48.048;11.706;2024-01-10T23:02:06;-4.40;99.90
5210;DHT22;2624;48.048;11.706;2024-01-10T23:07:09;-4.20;99.90
5210;DHT22;2624;48.048;11.706;2024-01-10T23:12:12;-4.60;99.90
5210;DHT22;2624;48.048;11.706;2024-01-10T23:17:14;-4.00;99.90
5210;DHT22;2624;48.048;11.706;2024-01-10T23:22:17;-3.80;99.90
5210;DHT22;2624;48.048;11.706;2024-01-10T23:27:19;-4.10;99.90
5210;DHT22;2624;48.048;11.706;2024-01-10T23:32:22;-3.80;99.90
5210;DHT22;2624;48.048;11.706;2024-01-10T23:37:25;-3.80;99.90
5210;DHT22;2624;48.048;11.706;2024-01-10T23:42:27;-4.00;99.90
5210;DHT22;2624;48.048;11.706;2024-01-10T23:47:28;-3.80;99.90
5210;DHT22;2624;48.048;11.706;2024-01-10T23:52:32;-4.70;99.90
5210;DHT22;2624;48.048;11.706;2024-01-10T23:57:33;-4.60;99.90
